sensor_id;sensor_type;location;lat;lon;timestamp;P1;durP1;ratioP1;P2;durP2;ratioP2
2944;SDS011;1482;51.398;7.128;2022-08-19T00:00:00;12.77;;;11.23;;
2944;SDS011;1482;51.398;7.128;2022-08-19T00:02:26;12.77;;;11.67;;
2944;SDS011;1482;51.398;7.128;2022-08-19T00:04:51;11.13;;;10.07;;
2944;SDS011;1482;51.398;7.128;2022-08-19T00:07:17;11.23;;;10.13;;
2944;SDS011;1482;51.398;7.128;2022-08-19T00:09:44;11.00;;;9.63;;
2944;SDS011;1482;51.398;7.128;2022-08-19T00:12:09;11.43;;;10.37;;
2944;SDS011;1482;51.398;7.128;2022-08-19T00:14:35;16.97;;;11.07;;
2944;SDS011;1482;51.398;7.128;2022-08-19T00:17:01;11.73;;;10.53;;
2944;SDS011;1482;51.398;7.128;2022-08-19T00:19:28;11.03;;;10.03;;
2944;SDS011;1482;51.398;7.128;2022-08-19T00:21:54;13.70;;;10.07;;
2944;SDS011;1482;51.398;7.128;2022-08-19T00:24:21;13.93;;;11.07;;
2944;SDS011;1482;51.398;7.128;2022-08-19T00:26:47;12.67;;;11.40;;
2944;SDS011;1482;51.398;7.128;2022-08-19T00:29:14;13.07;;;11.83;;
2944;SDS011;1482;51.398;7.128;2022-08-19T00:31:42;11.67;;;10.67;;
2944;SDS011;1482;51.398;7.128;2022-08-19T00:34:09;13.23;;;11.90;;
2944;SDS011;1482;51.398;7.128;2022-08-19T00:36:36;12.20;;;10.63;;
2944;SDS011;1482;51.398;7.128;2022-08-19T00:39:02;11.50;;;10.50;;
2944;SDS011;1482;51.398;7.128;2022-08-19T00:41:28;13.20;;;11.40;;
2944;SDS011;1482;51.398;7.128;2022-08-19T00:43:59;12.53;;;11.23;;
2944;SDS011;1482;51.398;7.128;2022-08-19T00:46:32;13.80;;;11.47;;
2944;SDS011;1482;51.398;7.128;2022-08-19T00:49:02;12.30;;;11.20;;
2944;SDS011;1482;51.398;7.128;2022-08-19T00:51:39;13.70;;;12.27;;
2944;SDS011;1482;51.398;7.128;2022-08-19T00:54:07;14.50;;;13.20;;
2944;SDS011;1482;51.398;7.128;2022-08-19T00:56:34;14.10;;;12.60;;
2944;SDS011;1482;51.398;7.128;2022-08-19T00:59:00;12.73;;;11.17;;
2944;SDS011;1482;51.398;7.128;2022-08-19T01:01:27;12.30;;;10.57;;
2944;SDS011;1482;51.398;7.128;2022-08-19T01:03:52;11.90;;;10.70;;
2944;SDS011;1482;51.398;7.128;2022-08-19T01:06:18;13.03;;;11.43;;
2944;SDS011;1482;51.398;7.128;2022-08-19T01:08:44;15.43;;;12.50;;
2944;SDS011;1482;51.398;7.128;2022-08-19T01:11:09;13.23;;;11.83;;
2944;SDS011;1482;51.398;7.128;2022-08-19T01:13:35;11.73;;;10.53;;
2944;SDS011;1482;51.398;7.128;2022-08-19T01:16:03;11.97;;;10.87;;
2944;SDS011;1482;51.398;7.128;2022-08-19T01:18:32;12.70;;;11.50;;
2944;SDS011;1482;51.398;7.128;2022-08-19T01:21:05;12.33;;;11.23;;
2944;SDS011;1482;51.398;7.128;2022-08-19T01:23:35;12.90;;;11.63;;
2944;SDS011;1482;51.398;7.128;2022-08-19T01:26:08;15.73;;;14.07;;
2944;SDS011;1482;51.398;7.128;2022-08-19T01:28:39;16.30;;;13.10;;
2944;SDS011;1482;51.398;7.128;2022-08-19T01:31:10;15.37;;;13.87;;
2944;SDS011;1482;51.398;7.128;2022-08-19T01:33:38;15.37;;;13.70;;
2944;SDS011;1482;51.398;7.128;2022-08-19T01:36:08;14.40;;;12.90;;
2944;SDS011;1482;51.398;7.128;2022-08-19T01:38:38;14.30;;;12.90;;
2944;SDS011;1482;51.398;7.128;2022-08-19T01:41:07;15.43;;;13.83;;
2944;SDS011;1482;51.398;7.128;2022-08-19T01:43:35;15.93;;;13.10;;
2944;SDS011;1482;51.398;7.128;2022-08-19T01:46:01;14.80;;;13.33;;
2944;SDS011;1482;51.398;7.128;2022-08-19T01:48:32;16.03;;;14.13;;
2944;SDS011;1482;51.398;7.128;2022-08-19T01:51:02;13.03;;;11.70;;
2944;SDS011;1482;51.398;7.128;2022-08-19T01:53:29;14.90;;;13.40;;
2944;SDS011;1482;51.398;7.128;2022-08-19T01:55:54;14.37;;;12.93;;
2944;SDS011;1482;51.398;7.128;2022-08-19T01:58:21;17.93;;;13.40;;
2944;SDS011;1482;51.398;7.128;2022-08-19T02:00:49;13.03;;;11.70;;
2944;SDS011;1482;51.398;7.128;2022-08-19T02:03:16;13.50;;;12.17;;
2944;SDS011;1482;51.398;7.128;2022-08-19T02:05:42;14.63;;;13.13;;
2944;SDS011;1482;51.398;7.128;2022-08-19T02:08:09;13.90;;;12.50;;
2944;SDS011;1482;51.398;7.128;2022-08-19T02:10:37;14.07;;;12.67;;
2944;SDS011;1482;51.398;7.128;2022-08-19T02:13:05;15.67;;;14.20;;
2944;SDS011;1482;51.398;7.128;2022-08-19T02:15:31;14.57;;;12.93;;
2944;SDS011;1482;51.398;7.128;2022-08-19T02:17:57;13.40;;;11.60;;
2944;SDS011;1482;51.398;7.128;2022-08-19T02:20:23;14.27;;;12.70;;
2944;SDS011;1482;51.398;7.128;2022-08-19T02:22:49;14.97;;;13.47;;
2944;SDS011;1482;51.398;7.128;2022-08-19T02:25:15;16.33;;;14.20;;
2944;SDS011;1482;51.398;7.128;2022-08-19T02:27:41;17.57;;;15.80;;
2944;SDS011;1482;51.398;7.128;2022-08-19T02:30:08;19.10;;;16.40;;
2944;SDS011;1482;51.398;7.128;2022-08-19T02:32:36;18.33;;;16.00;;
2944;SDS011;1482;51.398;7.128;2022-08-19T02:35:02;19.10;;;16.53;;
2944;SDS011;1482;51.398;7.128;2022-08-19T02:37:28;20.47;;;18.27;;
2944;SDS011;1482;51.398;7.128;2022-08-19T02:40:12;19.93;;;18.03;;
2944;SDS011;1482;51.398;7.128;2022-08-19T02:42:38;19.93;;;17.80;;
2944;SDS011;1482;51.398;7.128;2022-08-19T02:45:05;24.53;;;17.40;;
2944;SDS011;1482;51.398;7.128;2022-08-19T02:47:32;20.87;;;16.90;;
2944;SDS011;1482;51.398;7.128;2022-08-19T02:50:00;20.90;;;16.70;;
2944;SDS011;1482;51.398;7.128;2022-08-19T02:52:26;20.13;;;16.60;;
2944;SDS011;1482;51.398;7.128;2022-08-19T02:54:53;20.43;;;16.43;;
2944;SDS011;1482;51.398;7.128;2022-08-19T02:57:20;19.50;;;17.23;;
2944;SDS011;1482;51.398;7.128;2022-08-19T02:59:46;19.80;;;17.70;;
2944;SDS011;1482;51.398;7.128;2022-08-19T03:02:11;23.87;;;18.03;;
2944;SDS011;1482;51.398;7.128;2022-08-19T03:04:37;29.73;;;19.53;;
2944;SDS011;1482;51.398;7.128;2022-08-19T03:07:02;23.03;;;18.60;;
2944;SDS011;1482;51.398;7.128;2022-08-19T03:09:28;20.90;;;17.70;;
2944;SDS011;1482;51.398;7.128;2022-08-19T03:11:55;20.80;;;18.60;;
2944;SDS011;1482;51.398;7.128;2022-08-19T03:14:20;21.17;;;18.90;;
2944;SDS011;1482;51.398;7.128;2022-08-19T03:16:47;23.00;;;20.20;;
2944;SDS011;1482;51.398;7.128;2022-08-19T03:19:17;21.83;;;19.57;;
2944;SDS011;1482;51.398;7.128;2022-08-19T03:21:44;29.40;;;20.53;;
2944;SDS011;1482;51.398;7.128;2022-08-19T03:24:10;20.43;;;17.40;;
2944;SDS011;1482;51.398;7.128;2022-08-19T03:26:41;19.43;;;17.43;;
2944;SDS011;1482;51.398;7.128;2022-08-19T03:29:08;21.00;;;18.80;;
2944;SDS011;1482;51.398;7.128;2022-08-19T03:31:35;22.93;;;18.87;;
2944;SDS011;1482;51.398;7.128;2022-08-19T03:34:02;21.53;;;18.97;;
2944;SDS011;1482;51.398;7.128;2022-08-19T03:36:27;22.10;;;19.80;;
2944;SDS011;1482;51.398;7.128;2022-08-19T03:38:54;24.90;;;19.63;;
2944;SDS011;1482;51.398;7.128;2022-08-19T03:41:29;22.63;;;20.20;;
2944;SDS011;1482;51.398;7.128;2022-08-19T03:43:56;26.03;;;18.97;;
2944;SDS011;1482;51.398;7.128;2022-08-19T03:46:27;22.37;;;19.97;;
2944;SDS011;1482;51.398;7.128;2022-08-19T03:48:55;22.60;;;20.20;;
2944;SDS011;1482;51.398;7.128;2022-08-19T03:51:31;21.43;;;19.13;;
2944;SDS011;1482;51.398;7.128;2022-08-19T03:54:00;23.27;;;18.70;;
2944;SDS011;1482;51.398;7.128;2022-08-19T03:56:27;26.30;;;20.03;;
2944;SDS011;1482;51.398;7.128;2022-08-19T03:58:54;23.40;;;20.33;;
2944;SDS011;1482;51.398;7.128;2022-08-19T04:01:21;22.20;;;18.37;;
2944;SDS011;1482;51.398;7.128;2022-08-19T04:03:48;26.30;;;21.37;;
2944;SDS011;1482;51.398;7.128;2022-08-19T04:06:16;21.57;;;19.37;;
2944;SDS011;1482;51.398;7.128;2022-08-19T04:08:47;22.10;;;18.70;;
2944;SDS011;1482;51.398;7.128;2022-08-19T04:11:16;28.17;;;21.03;;
2944;SDS011;1482;51.398;7.128;2022-08-19T04:13:45;27.70;;;20.77;;
2944;SDS011;1482;51.398;7.128;2022-08-19T04:16:11;23.90;;;20.80;;
2944;SDS011;1482;51.398;7.128;2022-08-19T04:18:37;22.83;;;20.30;;
2944;SDS011;1482;51.398;7.128;2022-08-19T04:21:06;21.70;;;19.40;;
2944;SDS011;1482;51.398;7.128;2022-08-19T04:23:33;22.23;;;19.40;;
2944;SDS011;1482;51.398;7.128;2022-08-19T04:26:01;25.77;;;19.53;;
2944;SDS011;1482;51.398;7.128;2022-08-19T04:28:27;22.73;;;19.50;;
2944;SDS011;1482;51.398;7.128;2022-08-19T04:30:54;23.10;;;19.80;;
2944;SDS011;1482;51.398;7.128;2022-08-19T04:33:21;26.17;;;20.97;;
2944;SDS011;1482;51.398;7.128;2022-08-19T04:35:48;25.03;;;20.70;;
2944;SDS011;1482;51.398;7.128;2022-08-19T04:38:15;22.20;;;19.73;;
2944;SDS011;1482;51.398;7.128;2022-08-19T04:40:43;27.93;;;23.60;;
2944;SDS011;1482;51.398;7.128;2022-08-19T04:43:31;28.30;;;22.63;;
2944;SDS011;1482;51.398;7.128;2022-08-19T04:45:57;26.43;;;23.57;;
2944;SDS011;1482;51.398;7.128;2022-08-19T04:48:23;26.20;;;22.90;;
2944;SDS011;1482;51.398;7.128;2022-08-19T04:50:55;24.90;;;22.03;;
2944;SDS011;1482;51.398;7.128;2022-08-19T04:53:25;25.17;;;22.40;;
2944;SDS011;1482;51.398;7.128;2022-08-19T04:55:55;25.40;;;21.20;;
2944;SDS011;1482;51.398;7.128;2022-08-19T04:58:22;28.53;;;21.70;;
2944;SDS011;1482;51.398;7.128;2022-08-19T05:00:49;24.03;;;20.50;;
2944;SDS011;1482;51.398;7.128;2022-08-19T05:03:15;28.27;;;20.93;;
2944;SDS011;1482;51.398;7.128;2022-08-19T05:05:41;23.67;;;20.07;;
2944;SDS011;1482;51.398;7.128;2022-08-19T05:08:07;22.57;;;19.40;;
2944;SDS011;1482;51.398;7.128;2022-08-19T05:10:39;24.97;;;21.17;;
2944;SDS011;1482;51.398;7.128;2022-08-19T05:13:05;22.40;;;18.83;;
2944;SDS011;1482;51.398;7.128;2022-08-19T05:15:31;21.57;;;19.33;;
2944;SDS011;1482;51.398;7.128;2022-08-19T05:17:56;22.47;;;19.33;;
2944;SDS011;1482;51.398;7.128;2022-08-19T05:20:40;23.00;;;20.60;;
2944;SDS011;1482;51.398;7.128;2022-08-19T05:23:25;21.83;;;18.23;;
2944;SDS011;1482;51.398;7.128;2022-08-19T05:25:51;28.40;;;17.87;;
2944;SDS011;1482;51.398;7.128;2022-08-19T05:28:17;25.47;;;17.43;;
2944;SDS011;1482;51.398;7.128;2022-08-19T05:30:44;19.60;;;16.10;;
2944;SDS011;1482;51.398;7.128;2022-08-19T05:33:10;18.43;;;16.17;;
2944;SDS011;1482;51.398;7.128;2022-08-19T05:35:37;16.80;;;15.00;;
2944;SDS011;1482;51.398;7.128;2022-08-19T05:38:03;17.10;;;13.53;;
2944;SDS011;1482;51.398;7.128;2022-08-19T05:40:29;13.47;;;12.07;;
2944;SDS011;1482;51.398;7.128;2022-08-19T05:42:55;13.43;;;12.03;;
2944;SDS011;1482;51.398;7.128;2022-08-19T05:45:20;13.33;;;12.10;;
2944;SDS011;1482;51.398;7.128;2022-08-19T05:47:46;13.30;;;11.93;;
2944;SDS011;1482;51.398;7.128;2022-08-19T05:50:12;13.73;;;12.20;;
2944;SDS011;1482;51.398;7.128;2022-08-19T05:52:38;13.53;;;12.33;;
2944;SDS011;1482;51.398;7.128;2022-08-19T05:55:04;14.23;;;12.93;;
2944;SDS011;1482;51.398;7.128;2022-08-19T05:57:30;13.07;;;11.67;;
2944;SDS011;1482;51.398;7.128;2022-08-19T05:59:56;15.50;;;13.90;;
2944;SDS011;1482;51.398;7.128;2022-08-19T06:02:22;16.47;;;14.80;;
2944;SDS011;1482;51.398;7.128;2022-08-19T06:04:48;15.80;;;14.40;;
2944;SDS011;1482;51.398;7.128;2022-08-19T06:07:14;16.87;;;15.37;;
2944;SDS011;1482;51.398;7.128;2022-08-19T06:09:40;16.53;;;14.90;;
2944;SDS011;1482;51.398;7.128;2022-08-19T06:12:06;17.70;;;15.00;;
2944;SDS011;1482;51.398;7.128;2022-08-19T06:14:33;18.47;;;16.47;;
2944;SDS011;1482;51.398;7.128;2022-08-19T06:17:01;19.90;;;17.67;;
2944;SDS011;1482;51.398;7.128;2022-08-19T06:19:27;20.83;;;18.87;;
2944;SDS011;1482;51.398;7.128;2022-08-19T06:21:55;22.33;;;17.53;;
2944;SDS011;1482;51.398;7.128;2022-08-19T06:24:23;22.13;;;19.93;;
2944;SDS011;1482;51.398;7.128;2022-08-19T06:26:51;22.83;;;19.53;;
2944;SDS011;1482;51.398;7.128;2022-08-19T06:29:18;21.67;;;19.57;;
2944;SDS011;1482;51.398;7.128;2022-08-19T06:31:47;22.03;;;20.23;;
2944;SDS011;1482;51.398;7.128;2022-08-19T06:34:14;21.90;;;19.70;;
2944;SDS011;1482;51.398;7.128;2022-08-19T06:36:41;25.17;;;20.10;;
2944;SDS011;1482;51.398;7.128;2022-08-19T06:39:30;21.07;;;19.23;;
2944;SDS011;1482;51.398;7.128;2022-08-19T06:41:59;21.37;;;19.43;;
2944;SDS011;1482;51.398;7.128;2022-08-19T06:44:28;24.13;;;22.03;;
2944;SDS011;1482;51.398;7.128;2022-08-19T06:47:00;23.93;;;21.80;;
2944;SDS011;1482;51.398;7.128;2022-08-19T06:49:30;23.00;;;20.63;;
2944;SDS011;1482;51.398;7.128;2022-08-19T06:51:56;21.27;;;19.47;;
2944;SDS011;1482;51.398;7.128;2022-08-19T06:54:23;23.53;;;21.50;;
2944;SDS011;1482;51.398;7.128;2022-08-19T06:56:50;23.20;;;21.20;;
2944;SDS011;1482;51.398;7.128;2022-08-19T06:59:17;22.20;;;19.90;;
2944;SDS011;1482;51.398;7.128;2022-08-19T07:01:46;23.43;;;20.93;;
2944;SDS011;1482;51.398;7.128;2022-08-19T07:04:17;20.77;;;18.97;;
2944;SDS011;1482;51.398;7.128;2022-08-19T07:06:45;22.50;;;20.40;;
2944;SDS011;1482;51.398;7.128;2022-08-19T07:09:12;21.40;;;19.60;;
2944;SDS011;1482;51.398;7.128;2022-08-19T07:11:43;20.57;;;18.80;;
2944;SDS011;1482;51.398;7.128;2022-08-19T07:14:10;20.93;;;18.80;;
2944;SDS011;1482;51.398;7.128;2022-08-19T07:16:36;19.93;;;18.10;;
2944;SDS011;1482;51.398;7.128;2022-08-19T07:19:01;20.60;;;18.50;;
2944;SDS011;1482;51.398;7.128;2022-08-19T07:21:27;20.20;;;18.50;;
2944;SDS011;1482;51.398;7.128;2022-08-19T07:23:54;19.67;;;18.07;;
2944;SDS011;1482;51.398;7.128;2022-08-19T07:26:25;18.40;;;16.97;;
2944;SDS011;1482;51.398;7.128;2022-08-19T07:28:53;18.67;;;16.97;;
2944;SDS011;1482;51.398;7.128;2022-08-19T07:31:20;18.80;;;16.70;;
2944;SDS011;1482;51.398;7.128;2022-08-19T07:33:48;15.90;;;14.60;;
2944;SDS011;1482;51.398;7.128;2022-08-19T07:36:16;17.43;;;16.13;;
2944;SDS011;1482;51.398;7.128;2022-08-19T07:38:45;17.00;;;15.70;;
2944;SDS011;1482;51.398;7.128;2022-08-19T07:41:18;18.87;;;17.27;;
2944;SDS011;1482;51.398;7.128;2022-08-19T07:43:49;17.67;;;16.27;;
2944;SDS011;1482;51.398;7.128;2022-08-19T07:46:15;18.27;;;16.67;;
2944;SDS011;1482;51.398;7.128;2022-08-19T07:48:42;17.60;;;15.97;;
2944;SDS011;1482;51.398;7.128;2022-08-19T07:51:10;19.70;;;18.00;;
2944;SDS011;1482;51.398;7.128;2022-08-19T07:53:38;19.97;;;18.10;;
2944;SDS011;1482;51.398;7.128;2022-08-19T07:56:04;20.20;;;17.70;;
2944;SDS011;1482;51.398;7.128;2022-08-19T07:58:31;19.30;;;17.77;;
2944;SDS011;1482;51.398;7.128;2022-08-19T08:01:03;20.33;;;18.53;;
2944;SDS011;1482;51.398;7.128;2022-08-19T08:03:30;23.20;;;21.20;;
2944;SDS011;1482;51.398;7.128;2022-08-19T08:06:14;21.30;;;19.60;;
2944;SDS011;1482;51.398;7.128;2022-08-19T08:08:59;24.33;;;22.07;;
2944;SDS011;1482;51.398;7.128;2022-08-19T08:14:16;25.80;;;23.10;;
2944;SDS011;1482;51.398;7.128;2022-08-19T08:16:43;25.63;;;23.47;;
2944;SDS011;1482;51.398;7.128;2022-08-19T08:19:10;25.70;;;23.50;;
2944;SDS011;1482;51.398;7.128;2022-08-19T08:21:36;27.77;;;25.20;;
2944;SDS011;1482;51.398;7.128;2022-08-19T08:24:02;26.23;;;23.83;;
2944;SDS011;1482;51.398;7.128;2022-08-19T08:26:28;26.57;;;24.40;;
2944;SDS011;1482;51.398;7.128;2022-08-19T08:28:53;29.03;;;26.73;;
2944;SDS011;1482;51.398;7.128;2022-08-19T08:31:19;28.27;;;25.97;;
2944;SDS011;1482;51.398;7.128;2022-08-19T08:33:45;28.20;;;25.30;;
2944;SDS011;1482;51.398;7.128;2022-08-19T08:36:12;26.67;;;24.57;;
2944;SDS011;1482;51.398;7.128;2022-08-19T08:38:41;28.87;;;26.47;;
2944;SDS011;1482;51.398;7.128;2022-08-19T08:44:03;30.67;;;27.90;;
2944;SDS011;1482;51.398;7.128;2022-08-19T08:51:28;32.07;;;29.23;;
2944;SDS011;1482;51.398;7.128;2022-08-19T08:53:58;34.47;;;30.90;;
2944;SDS011;1482;51.398;7.128;2022-08-19T08:56:24;33.07;;;29.87;;
2944;SDS011;1482;51.398;7.128;2022-08-19T08:59:05;32.70;;;29.50;;
2944;SDS011;1482;51.398;7.128;2022-08-19T09:01:51;32.43;;;29.07;;
2944;SDS011;1482;51.398;7.128;2022-08-19T09:04:17;30.80;;;27.77;;
2944;SDS011;1482;51.398;7.128;2022-08-19T09:09:46;28.70;;;26.00;;
2944;SDS011;1482;51.398;7.128;2022-08-19T09:15:09;31.27;;;28.20;;
2944;SDS011;1482;51.398;7.128;2022-08-19T09:17:37;31.33;;;27.73;;
2944;SDS011;1482;51.398;7.128;2022-08-19T09:20:06;30.70;;;28.03;;
2944;SDS011;1482;51.398;7.128;2022-08-19T09:22:47;25.60;;;19.67;;
2944;SDS011;1482;51.398;7.128;2022-08-19T09:25:16;23.43;;;20.90;;
2944;SDS011;1482;51.398;7.128;2022-08-19T09:27:45;22.77;;;20.60;;
2944;SDS011;1482;51.398;7.128;2022-08-19T09:30:15;21.20;;;19.40;;
2944;SDS011;1482;51.398;7.128;2022-08-19T09:32:43;21.37;;;19.47;;
2944;SDS011;1482;51.398;7.128;2022-08-19T09:35:10;22.83;;;20.63;;
2944;SDS011;1482;51.398;7.128;2022-08-19T09:37:36;22.37;;;20.37;;
2944;SDS011;1482;51.398;7.128;2022-08-19T09:40:02;19.90;;;17.87;;
2944;SDS011;1482;51.398;7.128;2022-08-19T09:42:28;24.30;;;17.40;;
2944;SDS011;1482;51.398;7.128;2022-08-19T09:44:53;19.67;;;17.87;;
2944;SDS011;1482;51.398;7.128;2022-08-19T09:47:19;18.50;;;16.80;;
2944;SDS011;1482;51.398;7.128;2022-08-19T09:49:44;20.20;;;18.20;;
2944;SDS011;1482;51.398;7.128;2022-08-19T09:52:11;18.63;;;16.70;;
2944;SDS011;1482;51.398;7.128;2022-08-19T09:54:37;18.03;;;16.23;;
2944;SDS011;1482;51.398;7.128;2022-08-19T09:57:04;17.07;;;15.50;;
2944;SDS011;1482;51.398;7.128;2022-08-19T09:59:30;18.00;;;14.90;;
2944;SDS011;1482;51.398;7.128;2022-08-19T10:01:55;17.50;;;15.80;;
2944;SDS011;1482;51.398;7.128;2022-08-19T10:04:22;17.73;;;13.43;;
2944;SDS011;1482;51.398;7.128;2022-08-19T10:06:48;15.83;;;14.23;;
2944;SDS011;1482;51.398;7.128;2022-08-19T10:09:15;14.07;;;12.70;;
2944;SDS011;1482;51.398;7.128;2022-08-19T10:11:43;14.80;;;11.83;;
2944;SDS011;1482;51.398;7.128;2022-08-19T10:14:12;16.60;;;14.90;;
2944;SDS011;1482;51.398;7.128;2022-08-19T10:16:39;11.90;;;10.87;;
2944;SDS011;1482;51.398;7.128;2022-08-19T10:19:06;15.23;;;13.63;;
2944;SDS011;1482;51.398;7.128;2022-08-19T10:21:32;17.57;;;15.97;;
2944;SDS011;1482;51.398;7.128;2022-08-19T10:23:59;16.17;;;14.70;;
2944;SDS011;1482;51.398;7.128;2022-08-19T10:26:30;16.47;;;14.80;;
2944;SDS011;1482;51.398;7.128;2022-08-19T10:28:57;16.10;;;14.70;;
2944;SDS011;1482;51.398;7.128;2022-08-19T10:31:24;18.53;;;15.80;;
2944;SDS011;1482;51.398;7.128;2022-08-19T10:33:51;20.17;;;16.40;;
2944;SDS011;1482;51.398;7.128;2022-08-19T10:36:22;18.97;;;12.60;;
2944;SDS011;1482;51.398;7.128;2022-08-19T10:38:52;17.37;;;15.43;;
2944;SDS011;1482;51.398;7.128;2022-08-19T10:41:22;16.50;;;14.93;;
2944;SDS011;1482;51.398;7.128;2022-08-19T10:43:51;16.17;;;14.63;;
2944;SDS011;1482;51.398;7.128;2022-08-19T10:46:19;17.53;;;15.83;;
2944;SDS011;1482;51.398;7.128;2022-08-19T10:48:45;18.33;;;16.33;;
2944;SDS011;1482;51.398;7.128;2022-08-19T10:51:11;19.10;;;17.33;;
2944;SDS011;1482;51.398;7.128;2022-08-19T10:53:55;21.30;;;16.70;;
2944;SDS011;1482;51.398;7.128;2022-08-19T10:56:23;23.63;;;16.50;;
2944;SDS011;1482;51.398;7.128;2022-08-19T10:59:07;17.53;;;14.50;;
2944;SDS011;1482;51.398;7.128;2022-08-19T11:01:34;18.77;;;16.77;;
2944;SDS011;1482;51.398;7.128;2022-08-19T11:04:00;21.87;;;19.87;;
2944;SDS011;1482;51.398;7.128;2022-08-19T11:06:27;20.27;;;18.17;;
2944;SDS011;1482;51.398;7.128;2022-08-19T11:08:54;23.77;;;21.27;;
2944;SDS011;1482;51.398;7.128;2022-08-19T11:11:20;20.20;;;17.57;;
2944;SDS011;1482;51.398;7.128;2022-08-19T11:13:47;20.90;;;18.90;;
2944;SDS011;1482;51.398;7.128;2022-08-19T11:16:24;18.50;;;16.60;;
2944;SDS011;1482;51.398;7.128;2022-08-19T11:18:52;20.70;;;18.60;;
2944;SDS011;1482;51.398;7.128;2022-08-19T11:23:54;23.53;;;16.70;;
2944;SDS011;1482;51.398;7.128;2022-08-19T11:26:22;114.70;;;30.17;;
2944;SDS011;1482;51.398;7.128;2022-08-19T11:28:48;17.17;;;14.40;;
2944;SDS011;1482;51.398;7.128;2022-08-19T11:31:18;24.10;;;15.67;;
2944;SDS011;1482;51.398;7.128;2022-08-19T11:33:45;16.73;;;15.13;;
2944;SDS011;1482;51.398;7.128;2022-08-19T11:36:12;22.87;;;20.67;;
2944;SDS011;1482;51.398;7.128;2022-08-19T11:38:38;44.03;;;20.90;;
2944;SDS011;1482;51.398;7.128;2022-08-19T11:41:05;21.93;;;19.00;;
2944;SDS011;1482;51.398;7.128;2022-08-19T11:43:35;36.07;;;20.27;;
2944;SDS011;1482;51.398;7.128;2022-08-19T11:46:08;75.97;;;26.17;;
2944;SDS011;1482;51.398;7.128;2022-08-19T11:48:36;22.73;;;14.47;;
2944;SDS011;1482;51.398;7.128;2022-08-19T11:51:06;14.93;;;13.53;;
2944;SDS011;1482;51.398;7.128;2022-08-19T11:53:34;15.53;;;14.17;;
2944;SDS011;1482;51.398;7.128;2022-08-19T11:56:01;13.80;;;12.60;;
2944;SDS011;1482;51.398;7.128;2022-08-19T11:58:27;15.27;;;13.97;;
2944;SDS011;1482;51.398;7.128;2022-08-19T12:00:54;13.70;;;12.40;;
2944;SDS011;1482;51.398;7.128;2022-08-19T12:03:20;14.93;;;13.50;;
2944;SDS011;1482;51.398;7.128;2022-08-19T12:05:46;15.87;;;14.30;;
2944;SDS011;1482;51.398;7.128;2022-08-19T12:08:12;13.80;;;12.70;;
2944;SDS011;1482;51.398;7.128;2022-08-19T12:10:38;14.63;;;13.43;;
2944;SDS011;1482;51.398;7.128;2022-08-19T12:13:05;14.83;;;13.60;;
2944;SDS011;1482;51.398;7.128;2022-08-19T12:15:37;13.90;;;12.80;;
2944;SDS011;1482;51.398;7.128;2022-08-19T12:18:05;14.70;;;13.20;;
2944;SDS011;1482;51.398;7.128;2022-08-19T12:20:35;12.43;;;11.40;;
2944;SDS011;1482;51.398;7.128;2022-08-19T12:23:03;14.73;;;13.33;;
2944;SDS011;1482;51.398;7.128;2022-08-19T12:25:29;13.70;;;12.33;;
2944;SDS011;1482;51.398;7.128;2022-08-19T12:27:55;10.87;;;9.87;;
2944;SDS011;1482;51.398;7.128;2022-08-19T12:30:21;11.03;;;9.90;;
2944;SDS011;1482;51.398;7.128;2022-08-19T12:32:47;12.40;;;11.30;;
2944;SDS011;1482;51.398;7.128;2022-08-19T12:35:12;12.30;;;11.10;;
2944;SDS011;1482;51.398;7.128;2022-08-19T12:37:38;12.10;;;11.10;;
2944;SDS011;1482;51.398;7.128;2022-08-19T12:40:09;10.60;;;9.70;;
2944;SDS011;1482;51.398;7.128;2022-08-19T12:42:36;10.97;;;9.23;;
2944;SDS011;1482;51.398;7.128;2022-08-19T12:45:06;9.13;;;8.33;;
2944;SDS011;1482;51.398;7.128;2022-08-19T12:47:32;10.90;;;7.30;;
2944;SDS011;1482;51.398;7.128;2022-08-19T12:49:58;9.17;;;8.00;;
2944;SDS011;1482;51.398;7.128;2022-08-19T12:52:24;11.97;;;9.50;;
2944;SDS011;1482;51.398;7.128;2022-08-19T12:54:51;11.10;;;10.00;;
2944;SDS011;1482;51.398;7.128;2022-08-19T12:57:19;10.60;;;9.43;;
2944;SDS011;1482;51.398;7.128;2022-08-19T12:59:44;13.43;;;10.47;;
2944;SDS011;1482;51.398;7.128;2022-08-19T13:02:10;10.27;;;9.20;;
2944;SDS011;1482;51.398;7.128;2022-08-19T13:04:36;9.30;;;8.47;;
2944;SDS011;1482;51.398;7.128;2022-08-19T13:07:05;10.30;;;9.23;;
2944;SDS011;1482;51.398;7.128;2022-08-19T13:09:32;11.10;;;10.00;;
2944;SDS011;1482;51.398;7.128;2022-08-19T13:11:58;14.00;;;10.10;;
2944;SDS011;1482;51.398;7.128;2022-08-19T13:14:27;10.67;;;9.57;;
2944;SDS011;1482;51.398;7.128;2022-08-19T13:16:55;9.10;;;8.37;;
2944;SDS011;1482;51.398;7.128;2022-08-19T13:19:22;11.13;;;8.57;;
2944;SDS011;1482;51.398;7.128;2022-08-19T13:21:51;8.80;;;8.00;;
2944;SDS011;1482;51.398;7.128;2022-08-19T13:24:18;9.17;;;8.17;;
2944;SDS011;1482;51.398;7.128;2022-08-19T13:26:44;7.10;;;6.40;;
2944;SDS011;1482;51.398;7.128;2022-08-19T13:29:10;7.90;;;7.30;;
2944;SDS011;1482;51.398;7.128;2022-08-19T13:31:54;8.50;;;7.80;;
2944;SDS011;1482;51.398;7.128;2022-08-19T13:34:38;8.43;;;7.63;;
2944;SDS011;1482;51.398;7.128;2022-08-19T13:37:04;7.57;;;6.83;;
2944;SDS011;1482;51.398;7.128;2022-08-19T13:39:33;8.70;;;7.10;;
2944;SDS011;1482;51.398;7.128;2022-08-19T13:42:00;12.47;;;7.50;;
2944;SDS011;1482;51.398;7.128;2022-08-19T13:44:26;7.67;;;6.97;;
2944;SDS011;1482;51.398;7.128;2022-08-19T13:46:54;8.40;;;7.60;;
2944;SDS011;1482;51.398;7.128;2022-08-19T13:49:25;8.17;;;7.20;;
2944;SDS011;1482;51.398;7.128;2022-08-19T13:51:55;8.93;;;7.80;;
2944;SDS011;1482;51.398;7.128;2022-08-19T13:54:20;10.67;;;7.37;;
2944;SDS011;1482;51.398;7.128;2022-08-19T13:56:46;9.80;;;7.70;;
2944;SDS011;1482;51.398;7.128;2022-08-19T13:59:12;9.70;;;7.77;;
2944;SDS011;1482;51.398;7.128;2022-08-19T14:01:38;7.83;;;7.13;;
2944;SDS011;1482;51.398;7.128;2022-08-19T14:04:04;6.73;;;6.20;;
2944;SDS011;1482;51.398;7.128;2022-08-19T14:06:31;6.13;;;5.63;;
2944;SDS011;1482;51.398;7.128;2022-08-19T14:08:57;7.83;;;6.30;;
2944;SDS011;1482;51.398;7.128;2022-08-19T14:11:22;6.60;;;5.13;;
2944;SDS011;1482;51.398;7.128;2022-08-19T14:13:48;6.27;;;5.77;;
2944;SDS011;1482;51.398;7.128;2022-08-19T14:16:15;7.20;;;5.80;;
2944;SDS011;1482;51.398;7.128;2022-08-19T14:18:41;6.93;;;6.33;;
2944;SDS011;1482;51.398;7.128;2022-08-19T14:21:08;8.97;;;6.57;;
2944;SDS011;1482;51.398;7.128;2022-08-19T14:23:45;5.80;;;5.30;;
2944;SDS011;1482;51.398;7.128;2022-08-19T14:26:12;6.50;;;5.73;;
2944;SDS011;1482;51.398;7.128;2022-08-19T14:28:39;9.53;;;5.67;;
2944;SDS011;1482;51.398;7.128;2022-08-19T14:31:07;6.20;;;4.93;;
2944;SDS011;1482;51.398;7.128;2022-08-19T14:33:44;6.50;;;5.83;;
2944;SDS011;1482;51.398;7.128;2022-08-19T14:36:11;5.47;;;5.00;;
2944;SDS011;1482;51.398;7.128;2022-08-19T14:38:36;7.90;;;6.30;;
2944;SDS011;1482;51.398;7.128;2022-08-19T14:43:33;10.10;;;5.83;;
2944;SDS011;1482;51.398;7.128;2022-08-19T14:45:59;7.53;;;6.20;;
2944;SDS011;1482;51.398;7.128;2022-08-19T14:48:25;6.13;;;5.53;;
2944;SDS011;1482;51.398;7.128;2022-08-19T14:50:51;6.07;;;5.47;;
2944;SDS011;1482;51.398;7.128;2022-08-19T14:53:17;9.70;;;5.30;;
2944;SDS011;1482;51.398;7.128;2022-08-19T14:55:43;10.13;;;4.93;;
2944;SDS011;1482;51.398;7.128;2022-08-19T14:58:10;8.43;;;5.90;;
2944;SDS011;1482;51.398;7.128;2022-08-19T15:00:35;6.23;;;5.73;;
2944;SDS011;1482;51.398;7.128;2022-08-19T15:03:01;7.10;;;6.33;;
2944;SDS011;1482;51.398;7.128;2022-08-19T15:05:26;6.77;;;6.23;;
2944;SDS011;1482;51.398;7.128;2022-08-19T15:07:52;9.87;;;6.40;;
2944;SDS011;1482;51.398;7.128;2022-08-19T15:10:19;8.80;;;6.90;;
2944;SDS011;1482;51.398;7.128;2022-08-19T15:12:48;8.10;;;7.03;;
2944;SDS011;1482;51.398;7.128;2022-08-19T15:15:14;6.20;;;5.70;;
2944;SDS011;1482;51.398;7.128;2022-08-19T15:17:42;7.17;;;6.50;;